Time;durP1;ratioP1;P1;durP2;ratioP2;P2;SDS_P1;SDS_P2;PMS_P1;PMS_P2;Temp;Humidity;BMP_temperature;BMP_pressure;BME280_temperature;BME280_humidity;BME280_pressure;Samples;Min_cycle;Max_cycle;Signal;HPM_P1;HPM_P2
2023/12/07 00:00:32;;;;;;;4.95;3.03;;;0.40;99.90;;;;;;4957189;29;20492;-75
2023/12/07 00:02:59;;;;;;;4.88;3.33;;;0.30;99.90;;;;;;4955100;29;20028;-75
2023/12/07 00:05:27;;;;;;;4.95;3.38;;;0.20;99.90;;;;;;4957503;29;20030;-76
2023/12/07 00:08:05;;;;;;;5.65;3.75;;;0.20;99.90;;;;;;4956453;29;20036;-77
2023/12/07 00:10:30;;;;;;;6.60;3.83;;;0.20;99.90;;;;;;4956062;29;20020;-77
2023/12/07 00:12:57;;;;;;;5.35;3.15;;;0.20;99.90;;;;;;4957660;29;20158;-77
2023/12/07 00:15:24;;;;;;;4.90;3.22;;;0.00;99.90;;;;;;4960137;29;20028;-77
2023/12/07 00:17:49;;;;;;;6.57;3.83;;;-0.10;99.90;;;;;;4959387;29;20055;-77
2023/12/07 00:20:15;;;;;;;5.22;3.40;;;-0.10;99.90;;;;;;4958453;29;20020;-76
2023/12/07 00:22:46;;;;;;;5.53;3.63;;;-0.20;99.90;;;;;;4959013;29;20034;-76
2023/12/07 00:25:55;;;;;;;8.38;4.57;;;0.00;99.90;;;;;;4958948;29;20028;-76
2023/12/07 00:28:24;;;;;;;7.95;4.28;;;-0.20;99.90;;;;;;4958594;29;20087;-78
2023/12/07 00:30:57;;;;;;;12.73;4.55;;;-0.20;99.90;;;;;;4959112;29;20035;-77
2023/12/07 00:33:23;;;;;;;6.10;4.00;;;-0.40;99.90;;;;;;4953947;29;20044;-77
2023/12/07 00:35:50;;;;;;;5.63;3.90;;;0.50;99.90;;;;;;4955064;29;20126;-76
2023/12/07 00:38:21;;;;;;;9.70;4.47;;;-0.50;99.90;;;;;;4956626;29;20003;-76
2023/12/07 00:40:47;;;;;;;6.50;3.72;;;-0.60;99.90;;;;;;4957156;29;20027;-76
2023/12/07 00:46:25;;;;;;;4.80;3.30;;;-0.20;99.90;;;;;;4955753;29;20022;-77
2023/12/07 00:48:54;;;;;;;6.22;3.38;;;-0.60;99.90;;;;;;4954641;29;20047;-76
2023/12/07 00:51:30;;;;;;;5.97;3.65;;;0.80;99.90;;;;;;4954632;29;20034;-77
2023/12/07 00:54:40;;;;;;;6.68;3.30;;;-0.80;99.90;;;;;;4954628;29;20016;-76
2023/12/07 00:57:07;;;;;;;4.38;3.60;;;-0.70;99.90;;;;;;4954886;29;20481;-77
2023/12/07 00:59:37;;;;;;;5.97;3.53;;;-0.40;99.90;;;;;;4954208;29;20092;-77
2023/12/07 01:02:19;;;;;;;7.50;4.32;;;-0.70;99.90;;;;;;4951493;29;20019;-77
2023/12/07 01:04:48;;;;;;;7.10;3.63;;;0.50;99.90;;;;;;4953769;29;20027;-77
2023/12/07 01:07:15;;;;;;;7.18;4.13;;;-0.80;99.90;;;;;;4951709;29;20108;-77
2023/12/07 01:09:41;;;;;;;7.18;4.45;;;-0.40;99.90;;;;;;4944887;29;20031;-78
2023/12/07 01:12:07;;;;;;;5.07;3.20;;;-0.90;99.90;;;;;;4941191;29;20110;-78
2023/12/07 01:14:33;;;;;;;7.38;3.60;;;-0.90;99.90;;;;;;4941812;29;20047;-77
2023/12/07 01:16:58;;;;;;;7.57;3.70;;;-0.90;99.90;;;;;;4942548;29;20032;-77
2023/12/07 01:19:24;;;;;;;6.20;3.60;;;-0.60;99.90;;;;;;4941432;29;20027;-77
2023/12/07 01:21:51;;;;;;;10.25;3.95;;;-1.00;99.90;;;;;;4942006;29;20032;-78
2023/12/07 01:24:17;;;;;;;9.93;4.45;;;-0.30;99.90;;;;;;4939918;29;20074;-77
2023/12/07 01:26:43;;;;;;;15.43;6.40;;;-0.80;99.90;;;;;;4939892;29;20028;-77
2023/12/07 01:29:08;;;;;;;14.30;7.30;;;0.00;99.90;;;;;;4939516;29;20031;-78
2023/12/07 01:31:34;;;;;;;14.02;5.80;;;-0.70;99.90;;;;;;4938529;29;20030;-78
2023/12/07 01:34:00;;;;;;;6.05;3.72;;;-0.30;99.90;;;;;;4938874;29;20039;-78
2023/12/07 01:36:25;;;;;;;8.50;3.95;;;-0.70;99.90;;;;;;4938221;29;20028;-78
2023/12/07 01:38:51;;;;;;;6.53;3.40;;;-0.20;99.90;;;;;;4938796;29;20039;-78
2023/12/07 01:41:18;;;;;;;10.60;4.18;;;-0.90;99.90;;;;;;4939727;29;20030;-79
2023/12/07 01:43:47;;;;;;;9.45;4.28;;;-0.90;99.90;;;;;;4939852;29;20461;-79
2023/12/07 01:46:14;;;;;;;8.30;4.50;;;-0.70;99.90;;;;;;4936535;29;20495;-78
2023/12/07 01:48:41;;;;;;;9.38;4.93;;;-1.10;99.90;;;;;;4940402;29;20040;-79
2023/12/07 01:51:08;;;;;;;8.10;4.85;;;-1.00;99.90;;;;;;4942175;29;20024;-79
2023/12/07 01:53:35;;;;;;;6.68;3.85;;;0.20;99.90;;;;;;4942139;29;20035;-79
2023/12/07 01:56:01;;;;;;;9.55;5.35;;;-0.70;99.90;;;;;;4943713;29;20055;-79
2023/12/07 01:58:29;;;;;;;11.52;4.97;;;0.20;99.90;;;;;;4943448;29;20079;-79
2023/12/07 02:00:55;;;;;;;10.77;5.43;;;-1.20;99.90;;;;;;4943596;29;20027;-79
2023/12/07 02:03:21;;;;;;;10.60;4.97;;;0.10;99.90;;;;;;4942261;29;20035;-79
2023/12/07 02:05:48;;;;;;;8.63;5.28;;;-0.90;99.90;;;;;;4943953;29;20028;-80
2023/12/07 02:08:15;;;;;;;9.65;5.03;;;-0.20;99.90;;;;;;4943954;29;20028;-80
2023/12/07 02:10:41;;;;;;;8.65;4.63;;;-1.20;99.90;;;;;;4944005;29;20037;-79
2023/12/07 02:13:08;;;;;;;8.95;4.72;;;-1.30;99.90;;;;;;4944290;29;20040;-79
2023/12/07 02:15:34;;;;;;;8.10;4.78;;;-0.40;99.90;;;;;;4945602;29;20024;-79
2023/12/07 02:18:22;;;;;;;12.60;5.15;;;-0.70;99.90;;;;;;4944478;29;20039;-79
2023/12/07 02:21:00;;;;;;;10.15;5.03;;;-1.60;99.90;;;;;;4944163;29;20118;-79
2023/12/07 02:23:28;;;;;;;11.63;6.35;;;-1.60;99.90;;;;;;4944139;29;20035;-80
2023/12/07 02:25:57;;;;;;;8.52;4.72;;;-0.50;99.90;;;;;;4942797;29;20020;-79
2023/12/07 02:28:22;;;;;;;10.73;5.67;;;-1.60;99.90;;;;;;4943366;29;20100;-79
2023/12/07 02:30:48;;;;;;;8.48;4.47;;;-1.60;99.90;;;;;;4942610;29;20785;-79
2023/12/07 02:33:16;;;;;;;11.43;5.47;;;-0.80;99.90;;;;;;4945397;29;20079;-79
2023/12/07 02:35:43;;;;;;;11.95;5.38;;;-0.70;99.90;;;;;;4942810;29;20024;-80
2023/12/07 02:38:09;;;;;;;8.23;5.30;;;-1.50;99.90;;;;;;4944986;29;20167;-79
2023/12/07 02:40:35;;;;;;;8.23;5.15;;;-0.70;99.90;;;;;;4944453;29;20102;-79
2023/12/07 02:43:03;;;;;;;14.80;5.72;;;-0.90;99.90;;;;;;4946262;29;20036;-80
2023/12/07 02:45:29;;;;;;;8.38;5.00;;;-0.70;99.90;;;;;;4944123;29;20027;-79
2023/12/07 02:47:56;;;;;;;9.45;4.82;;;-1.90;99.90;;;;;;4947360;29;20038;-81
2023/12/07 02:50:22;;;;;;;7.25;4.82;;;-1.90;99.90;;;;;;4945288;29;20023;-80
2023/12/07 02:52:48;;;;;;;8.75;4.82;;;-0.60;99.90;;;;;;4948869;29;20039;-81
2023/12/07 02:55:13;;;;;;;7.43;4.72;;;-0.70;99.90;;;;;;4946702;29;20032;-82
2023/12/07 02:57:39;;;;;;;9.27;4.82;;;-0.10;99.90;;;;;;4945332;29;20519;-81
2023/12/07 03:00:07;;;;;;;10.27;4.95;;;-0.60;99.90;;;;;;4947187;29;20083;-81
2023/12/07 03:02:37;;;;;;;10.85;5.75;;;-2.10;99.90;;;;;;4943078;29;20027;-81
2023/12/07 03:05:04;;;;;;;10.02;5.47;;;-0.40;99.90;;;;;;4941877;29;20427;-81
2023/12/07 03:07:30;;;;;;;8.60;4.70;;;-2.20;99.90;;;;;;4941324;29;20058;-81
2023/12/07 03:09:56;;;;;;;10.95;4.80;;;-1.20;99.90;;;;;;4940725;29;20118;-81
2023/12/07 03:12:22;;;;;;;9.05;4.78;;;-1.20;99.90;;;;;;4941846;29;20507;-81
2023/12/07 03:14:48;;;;;;;11.45;6.47;;;-2.40;99.90;;;;;;4940751;29;20063;-81
2023/12/07 03:17:14;;;;;;;7.18;4.18;;;-0.50;99.90;;;;;;4928421;29;20040;-82
2023/12/07 03:19:40;;;;;;;8.38;4.60;;;-1.20;99.90;;;;;;4949318;29;20400;-82
2023/12/07 03:22:07;;;;;;;9.18;5.05;;;-1.30;99.90;;;;;;4949540;29;20024;-82
2023/12/07 03:24:36;;;;;;;9.48;5.13;;;-0.90;99.90;;;;;;4951473;29;20396;-81
2023/12/07 03:27:03;;;;;;;16.23;5.45;;;-0.70;99.90;;;;;;4947231;29;20027;-81
2023/12/07 03:29:29;;;;;;;9.40;4.93;;;-2.30;99.90;;;;;;4948561;29;20036;-80
2023/12/07 03:31:54;;;;;;;8.05;4.93;;;-1.40;99.90;;;;;;4950598;29;20048;-81
2023/12/07 03:34:20;;;;;;;8.35;6.03;;;-2.20;99.90;;;;;;4950559;29;20011;-81
2023/12/07 03:36:47;;;;;;;9.93;5.25;;;-2.30;99.90;;;;;;4951513;29;20012;-82
2023/12/07 03:39:15;;;;;;;8.15;5.05;;;-0.80;99.90;;;;;;4951254;29;20037;-82
2023/12/07 03:41:41;;;;;;;9.43;4.70;;;-1.00;99.90;;;;;;4949097;29;20028;-81
2023/12/07 03:44:07;;;;;;;9.32;5.13;;;-1.20;99.90;;;;;;4951012;29;20014;-82
2023/12/07 03:46:33;;;;;;;14.18;6.05;;;-0.90;99.90;;;;;;4949695;29;20032;-83
2023/12/07 03:48:59;;;;;;;7.85;4.45;;;-0.60;99.90;;;;;;4948473;29;20433;-83
2023/12/07 03:51:27;;;;;;;10.75;5.65;;;-0.70;99.90;;;;;;4950648;29;20039;-82
2023/12/07 03:53:54;;;;;;;12.15;5.90;;;-0.60;99.90;;;;;;4947541;29;20039;-81
2023/12/07 03:56:42;;;;;;;9.57;5.35;;;-1.20;99.90;;;;;;4951035;29;20012;-82
2023/12/07 03:59:08;;;;;;;15.93;6.75;;;-2.10;99.90;;;;;;4952826;29;20449;-81
2023/12/07 04:01:35;;;;;;;17.17;6.65;;;-2.00;99.90;;;;;;4951315;29;20024;-81
2023/12/07 04:04:01;;;;;;;12.68;5.60;;;-0.10;99.90;;;;;;4952127;29;20052;-81
2023/12/07 04:06:27;;;;;;;8.93;5.05;;;-0.50;99.90;;;;;;4949816;29;20105;-81
2023/12/07 04:08:53;;;;;;;9.07;4.75;;;-0.90;99.90;;;;;;4948015;29;20027;-81
2023/12/07 04:11:19;;;;;;;12.20;5.28;;;-0.70;99.90;;;;;;4947750;29;20028;-81
2023/12/07 04:13:47;;;;;;;18.08;6.90;;;-0.10;99.90;;;;;;4948109;29;20063;-81
2023/12/07 04:16:14;;;;;;;14.52;6.82;;;0.10;99.90;;;;;;4948844;29;20015;-81
2023/12/07 04:18:40;;;;;;;18.88;8.13;;;-0.30;99.90;;;;;;4950335;29;20060;-81
2023/12/07 04:21:06;;;;;;;36.65;7.60;;;-0.10;99.90;;;;;;4951902;29;20032;-81
2023/12/07 04:23:33;;;;;;;40.47;9.68;;;-1.10;99.90;;;;;;4950724;29;20030;-81
2023/12/07 04:25:59;;;;;;;16.90;7.35;;;-0.70;99.90;;;;;;4952408;29;20023;-81
2023/12/07 04:28:25;;;;;;;25.38;8.00;;;-0.10;99.90;;;;;;4952504;29;20032;-81
2023/12/07 04:30:52;;;;;;;32.60;10.15;;;0.80;99.90;;;;;;4949705;29;20063;-81
2023/12/07 04:33:18;;;;;;;47.63;10.07;;;-0.10;99.90;;;;;;4947631;29;20161;-81
2023/12/07 04:35:45;;;;;;;30.90;10.57;;;0.20;99.90;;;;;;4950632;29;20074;-81
2023/12/07 04:38:20;;;;;;;66.25;15.20;;;-0.20;99.90;;;;;;4949300;29;20031;-81
2023/12/07 04:40:46;;;;;;;42.65;12.20;;;-0.10;99.90;;;;;;4950939;29;20011;-79
2023/12/07 04:43:12;;;;;;;39.20;12.50;;;1.00;99.90;;;;;;4949419;29;20016;-80
2023/12/07 04:45:38;;;;;;;29.55;11.25;;;0.30;99.90;;;;;;4950281;29;20087;-80
2023/12/07 04:48:04;;;;;;;33.10;10.40;;;0.00;99.90;;;;;;4950509;29;20012;-80
2023/12/07 04:50:31;;;;;;;21.13;8.70;;;0.00;99.90;;;;;;4951160;29;20059;-81
2023/12/07 04:52:57;;;;;;;28.73;9.68;;;0.00;99.90;;;;;;4951034;29;20036;-80
2023/12/07 04:55:26;;;;;;;32.15;11.60;;;-0.20;99.90;;;;;;4950640;29;20059;-80
2023/12/07 04:57:52;;;;;;;74.55;13.82;;;0.30;99.90;;;;;;4949293;29;20052;-80
2023/12/07 05:00:18;;;;;;;33.28;10.43;;;0.20;99.90;;;;;;4947799;29;20507;-81
2023/12/07 05:02:46;;;;;;;83.43;16.60;;;0.10;99.90;;;;;;4950810;29;20027;-80
2023/12/07 05:05:12;;;;;;;20.47;9.30;;;0.20;99.90;;;;;;4949508;29;20028;-81
2023/12/07 05:07:38;;;;;;;38.42;9.65;;;0.30;99.90;;;;;;4947604;29;20393;-80
2023/12/07 05:10:04;;;;;;;23.85;10.35;;;0.30;99.90;;;;;;4947252;29;20020;-81
2023/12/07 05:12:32;;;;;;;20.65;8.60;;;0.30;99.90;;;;;;4949243;29;20034;-81
2023/12/07 05:14:58;;;;;;;29.65;11.75;;;0.60;99.90;;;;;;4950419;29;20517;-81
2023/12/07 05:17:23;;;;;;;24.50;9.50;;;0.30;99.90;;;;;;4951442;29;20023;-81
2023/12/07 05:19:49;;;;;;;42.05;13.13;;;0.60;99.90;;;;;;4949442;29;20011;-81
2023/12/07 05:22:15;;;;;;;39.55;12.05;;;0.70;99.90;;;;;;4951203;29;20038;-80
2023/12/07 05:24:41;;;;;;;50.85;13.93;;;1.00;99.90;;;;;;4949913;29;20078;-80
2023/12/07 05:27:10;;;;;;;50.85;13.43;;;0.80;99.90;;;;;;4949065;29;20051;-80
2023/12/07 05:29:36;;;;;;;36.60;14.35;;;0.50;99.90;;;;;;4949352;29;20023;-79
2023/12/07 05:32:01;;;;;;;56.88;17.40;;;0.60;99.90;;;;;;4949092;29;20032;-80
2023/12/07 05:34:27;;;;;;;43.95;14.30;;;0.50;99.90;;;;;;4950722;29;20020;-80
2023/12/07 05:36:53;;;;;;;37.63;14.13;;;0.50;99.90;;;;;;4947753;29;20035;-80
2023/12/07 05:39:21;;;;;;;32.88;13.38;;;0.70;99.90;;;;;;4948219;29;20008;-79
2023/12/07 05:41:47;;;;;;;34.60;13.98;;;0.60;99.90;;;;;;4948157;29;20027;-81
2023/12/07 05:44:13;;;;;;;36.65;14.15;;;0.70;99.90;;;;;;4949164;29;20555;-80
2023/12/07 05:46:43;;;;;;;47.00;18.85;;;0.70;99.90;;;;;;4947816;29;20008;-80
2023/12/07 05:49:30;;;;;;;40.92;15.30;;;0.80;99.90;;;;;;4949029;29;20027;-80
2023/12/07 05:51:56;;;;;;;38.75;16.08;;;0.90;99.90;;;;;;4948470;29;20035;-79
2023/12/07 05:54:24;;;;;;;45.13;16.98;;;0.90;99.90;;;;;;4947587;29;20451;-79
2023/12/07 05:56:49;;;;;;;43.85;16.17;;;0.90;99.90;;;;;;4947615;29;20464;-80
2023/12/07 05:59:19;;;;;;;36.45;14.23;;;0.90;99.90;;;;;;4945266;29;20056;-79
2023/12/07 06:01:44;;;;;;;;;;;0.90;99.90;;;;;;4947370;29;20043;-79
2023/12/07 06:04:15;;;;;;;34.13;13.50;;;1.20;99.90;;;;;;4949076;29;19910;-79
2023/12/07 06:06:41;;;;;;;35.80;14.43;;;0.90;99.90;;;;;;4950731;29;20023;-80
2023/12/07 06:09:07;;;;;;;43.00;15.38;;;0.90;99.90;;;;;;4956111;29;20020;-79
2023/12/07 06:11:40;;;;;;;36.15;14.07;;;1.10;99.90;;;;;;4951125;29;20028;-79
2023/12/07 06:14:07;;;;;;;32.05;14.80;;;0.80;99.90;;;;;;4948758;29;20039;-79
2023/12/07 06:16:33;;;;;;;35.38;15.55;;;0.90;99.90;;;;;;4949012;29;20039;-80
2023/12/07 06:18:58;;;;;;;39.45;15.15;;;0.90;99.90;;;;;;4955600;29;20004;-79
2023/12/07 06:21:25;;;;;;;39.38;14.85;;;1.30;99.90;;;;;;4954550;29;20099;-80
2023/12/07 06:23:51;;;;;;;35.03;13.90;;;1.00;99.90;;;;;;4947323;29;20038;-80
2023/12/07 06:26:16;;;;;;;34.03;15.73;;;0.90;99.90;;;;;;4941036;29;20028;-81
2023/12/07 06:28:42;;;;;;;32.80;14.93;;;1.00;99.90;;;;;;4942844;29;20118;-80
2023/12/07 06:31:08;;;;;;;29.98;12.55;;;1.60;99.90;;;;;;4942111;29;20122;-81
2023/12/07 06:33:34;;;;;;;33.30;13.95;;;1.00;99.90;;;;;;4940289;29;20497;-79
2023/12/07 06:36:03;;;;;;;32.38;13.88;;;1.00;99.90;;;;;;4942574;29;20027;-81
2023/12/07 06:38:31;;;;;;;30.58;13.65;;;1.00;99.90;;;;;;4940737;29;20067;-82
2023/12/07 06:40:57;;;;;;;35.25;14.18;;;1.00;99.90;;;;;;4941973;29;20423;-80
2023/12/07 06:43:23;;;;;;;29.48;13.50;;;1.10;99.90;;;;;;4939798;29;20444;-80
2023/12/07 06:45:49;;;;;;;29.40;14.38;;;1.00;99.90;;;;;;4938257;29;20028;-82
2023/12/07 06:48:14;;;;;;;29.15;12.35;;;1.10;99.90;;;;;;4944327;29;20023;-81
2023/12/07 06:50:40;;;;;;;29.90;13.50;;;1.10;99.90;;;;;;4950359;29;20051;-81
2023/12/07 06:53:06;;;;;;;36.20;13.43;;;1.00;99.90;;;;;;4953328;29;20035;-80
2023/12/07 06:55:31;;;;;;;29.95;11.95;;;1.10;99.90;;;;;;4956806;29;20028;-80
2023/12/07 06:57:57;;;;;;;32.40;13.50;;;1.10;99.90;;;;;;4957752;29;20043;-80
2023/12/07 07:00:24;;;;;;;29.55;13.68;;;1.40;99.90;;;;;;4957420;29;20019;-80
2023/12/07 07:02:50;;;;;;;31.38;13.82;;;1.10;99.90;;;;;;4947960;29;20095;-81
2023/12/07 07:05:15;;;;;;;28.02;12.90;;;1.10;99.90;;;;;;4940294;29;20473;-80
2023/12/07 07:07:41;;;;;;;32.65;12.38;;;1.20;99.90;;;;;;4949820;29;20039;-79
2023/12/07 07:10:12;;;;;;;29.10;14.18;;;1.20;99.90;;;;;;4957317;29;20008;-79
2023/12/07 07:12:40;;;;;;;31.73;13.75;;;1.10;99.90;;;;;;4956015;29;20030;-79
2023/12/07 07:15:08;;;;;;;29.77;11.63;;;1.10;99.90;;;;;;4950110;29;20055;-80
2023/12/07 07:17:37;;;;;;;32.53;13.65;;;1.00;99.90;;;;;;4955633;29;20839;-80
2023/12/07 07:20:03;;;;;;;34.88;14.98;;;1.00;99.90;;;;;;4953448;29;20013;-80
2023/12/07 07:22:28;;;;;;;30.13;12.98;;;1.10;99.90;;;;;;4940677;29;20143;-80
2023/12/07 07:24:54;;;;;;;29.10;13.98;;;1.10;99.90;;;;;;4947119;28;20509;-81
2023/12/07 07:27:20;;;;;;;32.97;13.75;;;1.30;99.90;;;;;;4939580;29;20032;-80
2023/12/07 07:29:46;;;;;;;28.02;12.75;;;1.10;99.90;;;;;;4941350;29;20027;-79
2023/12/07 07:32:11;;;;;;;29.02;13.60;;;1.20;99.90;;;;;;4944299;29;20024;-81
2023/12/07 07:34:37;;;;;;;30.05;13.68;;;1.20;99.90;;;;;;4940929;29;20560;-80
2023/12/07 07:37:03;;;;;;;29.67;13.27;;;1.20;99.90;;;;;;4939352;29;20031;-79
2023/12/07 07:39:28;;;;;;;31.40;11.45;;;1.10;99.90;;;;;;4938637;29;20027;-80
2023/12/07 07:41:54;;;;;;;25.58;12.15;;;1.10;99.90;;;;;;4938731;29;20024;-80
2023/12/07 07:44:20;;;;;;;26.83;11.45;;;0.90;99.90;;;;;;4938875;29;20039;-79
2023/12/07 07:46:46;;;;;;;25.05;12.00;;;1.10;99.90;;;;;;4939008;29;20489;-80
2023/12/07 07:49:11;;;;;;;26.75;11.25;;;1.00;99.90;;;;;;4938630;29;20496;-79
2023/12/07 07:51:38;;;;;;;25.52;11.68;;;0.80;99.90;;;;;;4942688;29;20099;-80
2023/12/07 07:54:04;;;;;;;22.23;10.07;;;0.70;99.90;;;;;;4951364;29;20061;-78
2023/12/07 07:56:30;;;;;;;23.63;10.75;;;0.70;99.90;;;;;;4949086;29;20079;-78
2023/12/07 07:59:00;;;;;;;25.38;10.50;;;0.50;99.90;;;;;;4948034;29;20063;-78
2023/12/07 08:01:26;;;;;;;21.20;9.88;;;0.50;99.90;;;;;;4949849;29;20055;-81
2023/12/07 08:03:52;;;;;;;24.02;10.70;;;0.40;99.90;;;;;;4950983;29;20015;-79
2023/12/07 08:06:18;;;;;;;22.75;10.63;;;0.50;99.90;;;;;;4949945;29;20107;-79
2023/12/07 08:08:44;;;;;;;22.02;11.57;;;0.40;99.90;;;;;;4942428;29;20114;-79
2023/12/07 08:11:10;;;;;;;22.35;10.80;;;0.30;99.90;;;;;;4943953;29;20454;-79
2023/12/07 08:13:35;;;;;;;23.05;10.07;;;0.30;99.90;;;;;;4944569;29;20046;-81
2023/12/07 08:16:01;;;;;;;19.00;9.13;;;0.40;99.90;;;;;;4943112;29;20062;-79
2023/12/07 08:18:28;;;;;;;24.27;10.93;;;0.50;99.90;;;;;;4943087;29;20083;-81
2023/12/07 08:20:54;;;;;;;23.02;10.50;;;0.50;99.90;;;;;;4941227;29;20032;-80
2023/12/07 08:23:20;;;;;;;22.17;10.52;;;0.60;99.90;;;;;;4953684;29;20027;-79
2023/12/07 08:25:48;;;;;;;25.80;10.38;;;0.70;99.90;;;;;;4948930;29;20051;-80
2023/12/07 08:28:14;;;;;;;21.98;10.25;;;0.60;99.90;;;;;;4953191;29;20028;-80
2023/12/07 08:30:40;;;;;;;23.08;9.95;;;0.70;99.90;;;;;;4954054;29;20036;-80
2023/12/07 08:33:05;;;;;;;27.48;11.20;;;0.60;99.90;;;;;;4953354;29;20047;-80
2023/12/07 08:35:38;;;;;;;21.88;9.43;;;0.70;99.90;;;;;;4955065;29;20043;-80
2023/12/07 08:38:04;;;;;;;23.10;10.85;;;0.70;99.90;;;;;;4954793;29;20022;-80
2023/12/07 08:40:30;;;;;;;24.95;10.23;;;0.90;99.90;;;;;;4956065;29;20027;-81
2023/12/07 08:42:55;;;;;;;21.40;10.82;;;1.00;99.90;;;;;;4953974;29;20008;-81
2023/12/07 08:45:22;;;;;;;25.25;10.55;;;1.30;99.90;;;;;;4953454;29;20081;-81
2023/12/07 08:47:47;;;;;;;23.27;11.30;;;1.40;99.90;;;;;;4953173;29;20027;-80
2023/12/07 08:50:13;;;;;;;26.02;11.40;;;1.40;99.90;;;;;;4954082;29;20020;-80
2023/12/07 08:52:38;;;;;;;22.77;10.88;;;1.50;99.90;;;;;;4953684;29;20043;-80
2023/12/07 08:55:07;;;;;;;22.25;10.48;;;1.40;99.90;;;;;;4954727;29;20465;-80
2023/12/07 08:57:36;;;;;;;23.15;10.73;;;1.60;99.90;;;;;;4951816;29;20032;-79
2023/12/07 09:00:01;;;;;;;20.80;9.95;;;1.60;99.90;;;;;;4951137;29;20134;-79
2023/12/07 09:02:27;;;;;;;22.50;10.88;;;1.70;99.90;;;;;;4950147;29;20016;-79
2023/12/07 09:04:53;;;;;;;22.90;10.68;;;1.60;99.90;;;;;;4950088;29;20018;-79
2023/12/07 09:07:18;;;;;;;20.40;10.25;;;1.70;99.90;;;;;;4948760;29;20098;-79
2023/12/07 09:09:47;;;;;;;20.23;9.80;;;1.70;99.90;;;;;;4950177;29;20527;-79
2023/12/07 09:12:14;;;;;;;23.43;10.13;;;1.80;99.90;;;;;;4953550;29;20051;-79
2023/12/07 09:14:40;;;;;;;26.02;10.73;;;1.90;99.90;;;;;;4952450;29;20031;-79
2023/12/07 09:17:05;;;;;;;26.30;11.30;;;2.10;99.90;;;;;;4951706;29;20043;-79
2023/12/07 09:19:37;;;;;;;23.67;10.98;;;2.20;99.90;;;;;;4959645;28;20023;-80
2023/12/07 09:22:03;;;;;;;19.40;9.52;;;2.50;99.90;;;;;;4945229;29;20055;-79
2023/12/07 09:24:28;;;;;;;22.17;10.77;;;2.70;99.90;;;;;;4940962;29;20024;-79
2023/12/07 09:26:54;;;;;;;20.40;10.35;;;2.90;99.90;;;;;;4938088;29;20083;-79
2023/12/07 09:29:19;;;;;;;25.13;10.70;;;3.00;99.90;;;;;;4935567;29;20050;-78
2023/12/07 09:31:45;;;;;;;23.17;10.25;;;3.10;99.90;;;;;;4936879;29;20384;-78
2023/12/07 09:34:11;;;;;;;20.35;9.00;;;3.20;99.90;;;;;;4936334;29;20047;-78
2023/12/07 09:36:37;;;;;;;13.77;6.85;;;3.20;99.90;;;;;;4942744;29;20107;-79
2023/12/07 09:39:03;;;;;;;17.13;9.55;;;3.20;99.90;;;;;;4942343;29;20473;-78
2023/12/07 09:41:30;;;;;;;18.10;8.10;;;3.10;99.90;;;;;;4932219;29;20027;-78
2023/12/07 09:43:56;;;;;;;17.92;8.13;;;3.20;99.90;;;;;;4948327;29;20020;-78
2023/12/07 09:46:22;;;;;;;20.83;9.65;;;3.10;99.90;;;;;;4946168;29;20034;-78
2023/12/07 09:48:49;;;;;;;17.35;8.52;;;3.30;99.90;;;;;;4949008;29;20030;-78
2023/12/07 09:51:15;;;;;;;16.85;7.85;;;3.50;99.90;;;;;;4955906;29;20031;-78
2023/12/07 09:53:45;;;;;;;15.95;8.25;;;3.70;99.90;;;;;;4953208;29;20128;-78
2023/12/07 09:56:33;;;;;;;16.38;10.10;;;3.90;99.90;;;;;;4954291;29;20027;-78
2023/12/07 09:58:59;;;;;;;17.90;8.13;;;4.20;99.90;;;;;;4955758;29;20047;-77
2023/12/07 10:01:31;;;;;;;16.40;8.07;;;3.90;99.90;;;;;;4952067;29;20028;-81
2023/12/07 10:04:22;;;;;;;16.33;8.35;;;4.00;99.90;;;;;;4948597;29;20039;-77
2023/12/07 10:06:49;;;;;;;15.63;7.82;;;4.20;99.90;;;;;;4942896;29;20028;-76
2023/12/07 10:09:15;;;;;;;12.27;7.43;;;4.60;99.90;;;;;;4935391;29;20397;-76
2023/12/07 10:11:41;;;;;;;20.50;8.73;;;4.60;99.90;;;;;;4936448;29;20024;-76
2023/12/07 10:14:07;;;;;;;14.63;7.45;;;4.60;99.90;;;;;;4935995;29;20032;-77
2023/12/07 10:16:35;;;;;;;15.60;8.13;;;4.60;99.90;;;;;;4935708;29;20039;-77
2023/12/07 10:19:21;;;;;;;19.42;8.35;;;4.40;99.90;;;;;;4935125;29;20028;-76
2023/12/07 10:21:54;;;;;;;15.45;7.38;;;4.40;99.90;;;;;;4934890;29;20516;-76
2023/12/07 10:24:21;;;;;;;14.25;6.75;;;4.30;99.90;;;;;;4937179;29;20068;-76
2023/12/07 10:26:48;;;;;;;13.85;7.57;;;4.40;99.90;;;;;;4941194;29;20064;-77
2023/12/07 10:29:14;;;;;;;16.00;7.30;;;4.50;99.90;;;;;;4941403;29;20116;-78
2023/12/07 10:31:40;;;;;;;14.40;7.43;;;4.60;99.90;;;;;;4941043;29;20032;-77
2023/12/07 10:34:08;;;;;;;17.08;9.30;;;4.70;99.90;;;;;;4941995;29;20068;-77
2023/12/07 10:36:34;;;;;;;15.77;8.75;;;4.80;99.90;;;;;;4939548;29;20029;-76
2023/12/07 10:38:59;;;;;;;17.13;9.57;;;4.70;99.90;;;;;;4942055;29;20040;-77
2023/12/07 10:41:25;;;;;;;16.65;7.85;;;4.50;99.90;;;;;;4941664;29;20028;-77
2023/12/07 10:44:00;;;;;;;16.52;8.82;;;4.40;99.90;;;;;;4946152;29;20027;-77
2023/12/07 10:46:26;;;;;;;18.42;9.27;;;4.30;99.90;;;;;;4943116;29;20030;-77
2023/12/07 10:49:01;;;;;;;14.80;8.48;;;4.30;99.90;;;;;;4942339;29;20086;-78
2023/12/07 10:51:50;;;;;;;17.20;8.70;;;4.50;99.90;;;;;;4943392;29;20508;-76
2023/12/07 10:54:21;;;;;;;14.55;7.47;;;5.00;99.90;;;;;;4941197;29;20047;-76
2023/12/07 10:56:50;;;;;;;10.10;6.30;;;5.30;99.90;;;;;;4943328;29;20473;-76
2023/12/07 10:59:16;;;;;;;17.98;7.05;;;5.40;99.90;;;;;;4942578;29;20044;-76
2023/12/07 11:01:43;;;;;;;13.98;7.78;;;5.30;99.90;;;;;;4941357;29;20036;-76
2023/12/07 11:04:13;;;;;;;13.38;7.80;;;5.30;99.90;;;;;;4942499;29;20051;-76
2023/12/07 11:06:48;;;;;;;10.90;7.45;;;5.60;99.90;;;;;;4942530;29;20058;-76
2023/12/07 11:09:21;;;;;;;11.93;7.93;;;5.70;99.90;;;;;;4942527;29;20052;-76
2023/12/07 11:12:05;;;;;;;12.20;6.75;;;5.90;99.90;;;;;;4942074;29;20030;-75
2023/12/07 11:14:32;;;;;;;10.60;6.80;;;5.40;99.90;;;;;;4941274;29;20047;-75
2023/12/07 11:16:59;;;;;;;11.70;6.07;;;5.10;99.90;;;;;;4942340;29;20032;-75
2023/12/07 11:19:36;;;;;;;13.88;7.53;;;4.80;99.90;;;;;;4943042;29;20032;-76
2023/12/07 11:22:04;;;;;;;12.18;6.90;;;4.70;99.90;;;;;;4944631;29;20055;-75
2023/12/07 11:24:30;;;;;;;16.05;7.50;;;4.70;99.90;;;;;;4944593;29;20556;-75
2023/12/07 11:26:56;;;;;;;13.85;8.48;;;4.80;99.90;;;;;;4945129;29;20097;-75
2023/12/07 11:29:24;;;;;;;12.57;6.93;;;4.70;99.90;;;;;;4947094;29;20057;-75
2023/12/07 11:31:51;;;;;;;13.38;7.53;;;4.60;99.90;;;;;;4946225;29;20024;-76
2023/12/07 11:34:38;;;;;;;11.38;6.63;;;4.20;99.90;;;;;;4945909;29;20080;-75
2023/12/07 11:37:10;;;;;;;9.90;5.97;;;4.00;99.90;;;;;;4945258;29;20114;-75
2023/12/07 11:39:46;;;;;;;11.65;6.50;;;3.80;99.90;;;;;;4945151;29;20038;-75
2023/12/07 11:42:17;;;;;;;13.27;6.43;;;3.70;99.90;;;;;;4944139;29;20032;-76
2023/12/07 11:44:47;;;;;;;12.02;6.50;;;3.60;99.90;;;;;;4945608;29;20059;-76
2023/12/07 11:47:17;;;;;;;13.57;7.35;;;3.70;99.90;;;;;;4945744;29;20385;-76
2023/12/07 11:49:43;;;;;;;12.25;7.47;;;3.80;99.90;;;;;;4945724;29;20083;-76
2023/12/07 11:52:19;;;;;;;14.98;8.05;;;3.80;99.90;;;;;;4941704;29;20024;-75
2023/12/07 11:54:46;;;;;;;12.70;6.40;;;3.80;99.90;;;;;;4940749;29;20035;-76
2023/12/07 11:57:16;;;;;;;12.55;6.95;;;3.80;99.90;;;;;;4941137;29;20433;-76
2023/12/07 11:59:43;;;;;;;11.18;6.90;;;3.80;99.90;;;;;;4943261;29;20042;-76
2023/12/07 12:02:11;;;;;;;12.45;6.68;;;3.90;99.90;;;;;;4941567;29;20075;-76
2023/12/07 12:04:38;;;;;;;11.43;5.28;;;4.00;99.90;;;;;;4939711;29;20032;-76
2023/12/07 12:07:03;;;;;;;15.57;6.13;;;4.10;99.90;;;;;;4940894;29;20031;-75
2023/12/07 12:09:29;;;;;;;14.10;7.35;;;4.10;99.90;;;;;;4939202;29;20079;-75
2023/12/07 12:12:00;;;;;;;14.55;6.72;;;4.20;99.90;;;;;;4937869;29;20031;-76
2023/12/07 12:14:26;;;;;;;12.30;6.28;;;4.30;99.90;;;;;;4939219;29;20493;-76
2023/12/07 12:16:52;;;;;;;12.95;6.13;;;4.40;99.90;;;;;;4940719;29;20031;-76
2023/12/07 12:19:17;;;;;;;15.85;7.47;;;4.50;99.90;;;;;;4940433;29;20082;-76
2023/12/07 12:21:43;;;;;;;14.52;6.80;;;4.50;99.90;;;;;;4941648;29;20027;-76
2023/12/07 12:24:10;;;;;;;16.92;7.50;;;4.40;99.90;;;;;;4938804;29;20031;-75
2023/12/07 12:26:38;;;;;;;13.10;6.20;;;4.30;99.90;;;;;;4937973;29;20480;-76
2023/12/07 12:29:04;;;;;;;13.05;7.30;;;4.30;99.90;;;;;;4940227;29;20032;-76
2023/12/07 12:31:30;;;;;;;14.00;6.43;;;4.30;99.90;;;;;;4937931;29;20028;-76
2023/12/07 12:33:56;;;;;;;15.02;7.38;;;4.30;99.90;;;;;;4937672;29;20382;-76
2023/12/07 12:36:27;;;;;;;12.48;7.10;;;4.40;99.90;;;;;;4937793;29;20075;-76
2023/12/07 12:38:53;;;;;;;13.93;7.15;;;4.40;99.90;;;;;;4938318;29;20083;-76
2023/12/07 12:41:22;;;;;;;12.75;6.10;;;4.40;99.90;;;;;;4937674;29;20388;-75
2023/12/07 12:43:49;;;;;;;14.15;7.50;;;4.40;99.90;;;;;;4937281;29;20059;-76
2023/12/07 12:46:15;;;;;;;14.15;6.68;;;4.30;99.90;;;;;;4938429;29;20028;-75
2023/12/07 12:48:58;;;;;;;12.38;6.88;;;4.40;99.90;;;;;;4937967;29;20028;-75